Time;durP1;ratioP1;P1;durP2;ratioP2;P2;SDS_P1;SDS_P2;PMS_P1;PMS_P2;Temp;Humidity;BMP_temperature;BMP_pressure;BME280_temperature;BME280_humidity;BME280_pressure;Samples;Min_cycle;Max_cycle;Signal;HPM_P1;HPM_P2
2023/11/09 00:02:16;;;;;;;1.05;0.50;;;;;;;19.59;48.86;100155.91;5021056;28;20228;-69
2023/11/09 00:04:42;;;;;;;1.00;0.50;;;;;;;19.58;48.65;100151.59;5020921;28;20075;-71
2023/11/09 00:07:08;;;;;;;1.75;0.63;;;;;;;19.55;48.70;100151.88;5020025;28;20088;-68
2023/11/09 00:09:34;;;;;;;1.63;0.57;;;;;;;19.56;49.07;100154.38;5017760;28;20045;-68
2023/11/09 00:11:59;;;;;;;2.05;0.52;;;;;;;19.56;48.71;100143.81;5020310;28;20037;-69
2023/11/09 00:14:25;;;;;;;0.82;0.40;;;;;;;19.53;48.77;100138.81;5020366;28;20048;-69
2023/11/09 00:16:50;;;;;;;1.60;0.60;;;;;;;19.54;48.79;100139.69;5020402;28;20033;-67
2023/11/09 00:19:15;;;;;;;0.60;0.40;;;;;;;19.53;48.84;100127.44;5020638;28;20515;-68
2023/11/09 00:21:40;;;;;;;0.88;0.60;;;;;;;19.53;48.55;100135.34;5001798;28;20649;-67
2023/11/09 00:24:11;;;;;;;1.00;0.47;;;;;;;19.52;48.88;100129.25;5020579;28;20037;-67
2023/11/09 00:26:45;;;;;;;2.75;0.60;;;;;;;19.50;48.90;100125.09;5019821;28;20574;-70
2023/11/09 00:29:12;;;;;;;1.75;0.50;;;;;;;19.50;49.07;100122.44;5008308;28;20060;-68
2023/11/09 00:31:37;;;;;;;2.10;0.60;;;;;;;19.48;48.69;100119.13;5020615;28;20033;-68
2023/11/09 00:34:02;;;;;;;0.95;0.70;;;;;;;19.48;48.74;100111.22;5020026;28;20029;-68
2023/11/09 00:36:28;;;;;;;1.05;0.47;;;;;;;19.48;48.86;100114.66;5020396;28;20044;-68
2023/11/09 00:38:53;;;;;;;0.75;0.40;;;;;;;19.47;48.81;100107.75;5020649;28;20025;-69
2023/11/09 00:41:18;;;;;;;0.98;0.52;;;;;;;19.47;48.75;100105.09;5019621;28;20044;-68
2023/11/09 00:43:44;;;;;;;1.85;0.80;;;;;;;19.46;48.73;100106.06;5020314;28;20654;-70
2023/11/09 00:46:09;;;;;;;1.85;0.50;;;;;;;19.46;48.59;100107.88;5019643;28;20044;-69
2023/11/09 00:48:36;;;;;;;2.13;0.70;;;;;;;19.44;48.70;100105.41;5019552;28;20509;-68
2023/11/09 00:51:01;;;;;;;0.63;0.40;;;;;;;19.45;48.84;100104.41;5018460;28;20036;-70
2023/11/09 00:53:27;;;;;;;1.20;0.50;;;;;;;19.44;48.72;100094.81;5019997;28;20037;-71
2023/11/09 00:55:52;;;;;;;0.98;0.47;;;;;;;19.43;48.79;100087.88;5015439;28;20476;-68
2023/11/09 00:58:17;;;;;;;1.17;0.50;;;;;;;19.42;48.67;100088.03;5000314;28;20984;-71
2023/11/09 01:00:42;;;;;;;1.63;0.60;;;;;;;19.42;48.82;100086.19;5011816;28;20286;-69
2023/11/09 01:03:08;;;;;;;1.20;0.33;;;;;;;19.42;48.78;100083.56;5004893;28;20030;-70
2023/11/09 01:05:33;;;;;;;0.60;0.50;;;;;;;19.42;48.66;100077.44;5010813;28;20259;-68
2023/11/09 01:07:58;;;;;;;0.97;0.50;;;;;;;19.40;48.59;100075.78;5013557;28;20980;-71
2023/11/09 01:10:24;;;;;;;1.20;0.60;;;;;;;19.40;48.61;100081.06;5008517;28;20274;-68
2023/11/09 01:12:49;;;;;;;1.80;0.50;;;;;;;19.39;48.75;100068.00;5009584;28;20259;-70
2023/11/09 01:15:14;;;;;;;1.25;0.60;;;;;;;19.39;48.68;100076.78;5009777;28;20034;-69
2023/11/09 01:17:41;;;;;;;0.75;0.40;;;;;;;19.36;48.40;100071.81;5007829;28;20030;-69
2023/11/09 01:20:07;;;;;;;2.30;0.60;;;;;;;19.36;48.79;100063.88;5001777;28;20147;-68
2023/11/09 01:22:34;;;;;;;1.42;0.57;;;;;;;19.37;48.93;100070.81;5009536;28;20682;-68
2023/11/09 01:24:59;;;;;;;0.70;0.50;;;;;;;19.35;48.89;100062.19;5007579;28;20385;-69
2023/11/09 01:27:25;;;;;;;1.45;0.60;;;;;;;19.35;48.71;100066.66;5002431;28;20049;-70
2023/11/09 01:29:50;;;;;;;2.05;0.57;;;;;;;19.34;48.92;100057.91;5013924;28;20029;-71
2023/11/09 01:32:15;;;;;;;1.30;0.50;;;;;;;19.32;48.86;100049.28;5003060;28;20430;-70
2023/11/09 01:34:40;;;;;;;1.20;0.50;;;;;;;19.32;48.82;100043.19;5019263;28;20045;-71
2023/11/09 01:37:10;;;;;;;1.02;0.50;;;;;;;19.32;48.99;100054.56;5007572;28;20798;-69
2023/11/09 01:39:38;;;;;;;1.10;0.50;;;;;;;19.32;48.86;100045.84;5006532;28;20482;-69
2023/11/09 01:42:04;;;;;;;1.08;0.50;;;;;;;19.30;48.83;100045.16;5013442;28;20094;-69
2023/11/09 01:44:29;;;;;;;1.02;0.57;;;;;;;19.30;48.86;100040.69;5015162;28;20037;-69
2023/11/09 01:46:55;;;;;;;0.70;0.43;;;;;;;19.30;48.66;100037.25;5008605;28;20034;-71
2023/11/09 01:49:20;;;;;;;0.63;0.40;;;;;;;19.29;48.89;100025.00;5009930;28;20378;-68
2023/11/09 01:51:48;;;;;;;1.02;0.40;;;;;;;19.29;48.72;100028.47;5003479;28;20033;-70
2023/11/09 01:54:18;;;;;;;0.95;0.50;;;;;;;19.27;48.56;100021.69;5012206;28;20042;-69
2023/11/09 01:56:43;;;;;;;1.17;0.43;;;;;;;19.27;48.63;100019.88;5014218;28;20383;-70
2023/11/09 01:59:09;;;;;;;1.90;0.50;;;;;;;19.28;48.74;100018.91;5008088;28;20465;-68
2023/11/09 02:01:36;;;;;;;0.43;0.30;;;;;;;19.25;49.05;100021.84;5012692;28;20967;-67
2023/11/09 02:04:02;;;;;;;1.25;0.50;;;;;;;19.24;48.80;100009.59;5004505;28;20038;-70
2023/11/09 02:06:28;;;;;;;0.85;0.50;;;;;;;19.26;48.79;100014.72;5003178;28;20046;-69
2023/11/09 02:08:54;;;;;;;1.55;0.50;;;;;;;19.25;48.79;100008.63;5012174;28;20084;-68
2023/11/09 02:11:19;;;;;;;0.90;0.47;;;;;;;19.25;48.42;100003.34;5001321;28;20033;-68
2023/11/09 02:13:46;;;;;;;0.98;0.50;;;;;;;19.24;48.78;100014.88;5000427;28;20030;-71
2023/11/09 02:16:11;;;;;;;1.55;0.63;;;;;;;19.24;48.75;100012.25;5004556;28;20042;-70
2023/11/09 02:18:36;;;;;;;0.93;0.40;;;;;;;19.24;48.86;100004.31;5006616;28;20052;-68
2023/11/09 02:21:02;;;;;;;0.68;0.40;;;;;;;19.24;48.91;99995.56;5011023;28;20025;-70
2023/11/09 02:23:32;;;;;;;0.93;0.50;;;;;;;19.23;48.88;100002.66;5010143;28;20522;-68
2023/11/09 02:25:59;;;;;;;1.23;0.60;;;;;;;19.23;48.75;100004.47;5008031;28;20121;-69
2023/11/09 02:28:25;;;;;;;0.98;0.50;;;;;;;19.22;48.68;100001.00;5009767;28;20025;-70
2023/11/09 02:30:50;;;;;;;1.00;0.50;;;;;;;19.23;49.05;99999.19;5001390;28;20034;-68
2023/11/09 02:33:15;;;;;;;0.95;0.47;;;;;;;19.21;48.88;100000.16;5013983;28;20570;-69
2023/11/09 02:35:41;;;;;;;0.43;0.40;;;;;;;19.21;48.74;99991.41;5018870;28;20088;-68
2023/11/09 02:38:08;;;;;;;1.23;0.40;;;;;;;19.20;48.96;99987.94;5018134;28;20044;-65
2023/11/09 02:40:34;;;;;;;1.13;0.50;;;;;;;19.19;48.95;99994.22;5015733;28;20030;-67
2023/11/09 02:42:59;;;;;;;1.25;0.50;;;;;;;19.20;48.95;99984.47;5016355;28;20041;-67
2023/11/09 02:45:25;;;;;;;1.10;0.60;;;;;;;19.19;48.93;99981.00;5013881;28;20034;-70
2023/11/09 02:47:50;;;;;;;0.93;0.40;;;;;;;19.19;49.11;99974.91;5007652;28;20850;-67
2023/11/09 02:50:15;;;;;;;1.25;0.50;;;;;;;19.18;48.80;99975.88;5011698;28;20278;-69
2023/11/09 02:52:41;;;;;;;2.50;0.50;;;;;;;19.19;49.13;99974.91;5013754;28;20022;-68
2023/11/09 02:55:08;;;;;;;1.83;0.57;;;;;;;19.18;48.90;99975.88;5015961;28;20045;-70
2023/11/09 02:57:33;;;;;;;1.42;0.57;;;;;;;19.17;49.05;99977.69;5011388;28;20037;-68
2023/11/09 02:59:59;;;;;;;0.65;0.50;;;;;;;19.17;48.92;99982.16;5011335;28;20037;-70
2023/11/09 03:02:24;;;;;;;1.33;0.50;;;;;;;19.16;48.97;99970.75;5008798;28;20504;-68
2023/11/09 03:04:50;;;;;;;1.00;0.50;;;;;;;19.16;48.89;99973.38;5010029;28;20084;-66
2023/11/09 03:07:15;;;;;;;1.38;0.50;;;;;;;19.16;48.85;99968.09;5016946;28;20400;-68
2023/11/09 03:09:40;;;;;;;1.30;0.52;;;;;;;19.15;49.07;99965.59;5017919;28;20038;-68
2023/11/09 03:12:07;;;;;;;0.90;0.50;;;;;;;19.14;48.80;99954.22;5020100;28;20021;-70
2023/11/09 03:14:36;;;;;;;0.90;0.47;;;;;;;19.14;48.97;99956.03;5009547;28;20060;-70
2023/11/09 03:17:06;;;;;;;1.00;0.50;;;;;;;19.14;49.17;99959.50;5008581;28;20041;-67
2023/11/09 03:19:31;;;;;;;1.98;0.60;;;;;;;19.15;49.06;99957.69;5001885;28;20087;-67
2023/11/09 03:21:56;;;;;;;1.23;0.37;;;;;;;19.14;49.01;99956.88;5011419;28;20441;-70
2023/11/09 03:24:22;;;;;;;1.30;0.50;;;;;;;19.13;48.91;99960.47;5011704;28;20297;-68
2023/11/09 03:26:47;;;;;;;1.90;0.57;;;;;;;19.11;49.01;99951.88;5010812;28;20045;-70
2023/11/09 03:29:12;;;;;;;0.97;0.50;;;;;;;19.13;48.92;99957.00;5014594;28;20756;-67
2023/11/09 03:31:37;;;;;;;0.68;0.40;;;;;;;19.12;49.16;99950.06;5011320;28;20366;-69
2023/11/09 03:34:03;;;;;;;1.55;0.60;;;;;;;19.12;49.26;99950.06;5010264;28;20030;-68
2023/11/09 03:36:29;;;;;;;0.95;0.50;;;;;;;19.12;49.23;99947.44;5011870;28;20623;-69
2023/11/09 03:38:55;;;;;;;1.10;0.45;;;;;;;19.11;49.36;99949.25;5010800;28;20076;-69
2023/11/09 03:41:20;;;;;;;0.93;0.50;;;;;;;19.10;49.21;99942.28;5014349;28;20561;-69
2023/11/09 03:43:45;;;;;;;0.65;0.47;;;;;;;19.10;49.16;99952.84;5012299;28;20051;-70
2023/11/09 03:46:13;;;;;;;0.80;0.50;;;;;;;19.10;49.10;99958.13;5019687;28;20120;-71
2023/11/09 03:48:38;;;;;;;0.80;0.45;;;;;;;19.10;48.92;99962.59;5017938;28;20030;-69
2023/11/09 03:51:03;;;;;;;0.68;0.40;;;;;;;19.10;48.76;99952.03;5009096;28;20069;-70
2023/11/09 03:53:29;;;;;;;1.33;0.60;;;;;;;19.09;49.15;99955.66;5014434;28;20037;-68
2023/11/09 03:55:54;;;;;;;1.55;0.70;;;;;;;19.08;49.14;99960.09;4998060;28;20100;-68
2023/11/09 03:58:19;;;;;;;0.83;0.50;;;;;;;19.08;48.94;99956.66;5015300;28;20124;-67
2023/11/09 04:00:44;;;;;;;1.10;0.53;;;;;;;19.08;49.02;99954.00;5011388;28;20267;-69
2023/11/09 04:03:14;;;;;;;2.28;0.60;;;;;;;19.07;49.07;99966.38;5008773;28;20255;-68
2023/11/09 04:05:39;;;;;;;2.40;0.80;;;;;;;19.07;49.35;99969.00;5000956;28;20022;-68
2023/11/09 04:08:04;;;;;;;1.48;0.60;;;;;;;19.06;49.12;99956.81;5012741;28;20045;-69
2023/11/09 04:10:30;;;;;;;1.50;0.60;;;;;;;19.07;49.43;99957.63;5006229;28;20037;-68
2023/11/09 04:12:56;;;;;;;1.27;0.60;;;;;;;19.06;49.36;99964.72;5002102;28;20267;-69
2023/11/09 04:15:21;;;;;;;2.47;0.70;;;;;;;19.06;49.05;99959.44;5013840;28;20286;-68
2023/11/09 04:17:47;;;;;;;1.50;0.60;;;;;;;19.05;49.19;99960.41;5011435;28;20445;-67
2023/11/09 04:20:12;;;;;;;1.40;0.70;;;;;;;19.05;49.32;99964.88;5018585;28;20049;-69
2023/11/09 04:22:38;;;;;;;0.70;0.52;;;;;;;19.04;49.27;99953.47;5008510;28;20429;-71
2023/11/09 04:25:03;;;;;;;0.88;0.50;;;;;;;19.03;49.28;99951.81;5011669;28;20750;-68
2023/11/09 04:27:29;;;;;;;2.00;0.50;;;;;;;19.05;49.38;99959.59;5015628;28;20034;-69
2023/11/09 04:29:54;;;;;;;1.20;0.52;;;;;;;19.05;49.19;99968.34;5007851;28;20091;-69
2023/11/09 04:32:20;;;;;;;1.20;0.50;;;;;;;19.03;49.47;99967.66;5014232;28;20124;-71
2023/11/09 04:34:46;;;;;;;1.30;0.50;;;;;;;19.03;49.26;99970.31;5011474;28;20091;-71
2023/11/09 04:37:13;;;;;;;1.35;0.80;;;;;;;19.04;49.44;99971.94;5018033;28;20037;-68
2023/11/09 04:39:43;;;;;;;1.98;0.55;;;;;;;19.03;49.15;99975.59;5013543;28;20068;-69
2023/11/09 04:42:09;;;;;;;1.02;0.52;;;;;;;19.03;49.39;99971.13;5008973;28;20154;-68
2023/11/09 04:44:37;;;;;;;2.38;0.70;;;;;;;19.03;49.32;99971.13;5001721;28;20193;-68
2023/11/09 04:47:08;;;;;;;1.23;0.50;;;;;;;19.03;49.26;99975.59;4998574;28;20467;-69
2023/11/09 04:49:45;;;;;;;1.58;0.70;;;;;;;19.01;49.33;99975.75;5002692;28;20029;-69
2023/11/09 04:52:19;;;;;;;0.88;0.55;;;;;;;19.01;49.40;99970.47;4998646;28;20041;-68
2023/11/09 04:54:56;;;;;;;1.52;0.60;;;;;;;19.01;49.50;99981.03;5001095;28;20033;-71
2023/11/09 05:08:23;;;;;;;0.93;0.55;;;;;;;19.00;49.50;99981.16;5015996;28;20518;-70
2023/11/09 05:10:48;;;;;;;1.13;0.65;;;;;;;18.99;49.35;99988.28;5010170;28;20033;-68
2023/11/09 05:13:14;;;;;;;1.55;0.75;;;;;;;18.97;49.45;99995.50;5009388;28;20083;-71
2023/11/09 05:15:39;;;;;;;1.35;0.70;;;;;;;18.98;49.50;99993.69;5010709;28;20124;-68
2023/11/09 05:18:04;;;;;;;2.27;0.80;;;;;;;18.98;49.83;99989.25;5006803;28;20042;-70
2023/11/09 05:20:30;;;;;;;1.77;0.80;;;;;;;19.00;49.40;99991.72;5006968;28;20266;-71
2023/11/09 05:22:56;;;;;;;1.57;0.73;;;;;;;18.99;49.34;99997.97;5007079;28;20041;-69
2023/11/09 05:25:21;;;;;;;1.75;0.60;;;;;;;19.00;49.51;100002.28;5009856;28;20307;-69
2023/11/09 05:27:47;;;;;;;1.25;0.52;;;;;;;18.98;49.43;99998.97;5009436;28;20120;-70
2023/11/09 05:30:12;;;;;;;1.53;0.80;;;;;;;18.99;49.52;99996.19;5006276;28;20037;-71
2023/11/09 05:32:40;;;;;;;1.00;0.70;;;;;;;18.98;49.54;99997.16;5007279;28;20270;-68
2023/11/09 05:35:10;;;;;;;1.65;0.75;;;;;;;18.98;49.65;99994.53;4998921;28;20038;-69
2023/11/09 05:37:35;;;;;;;1.55;0.80;;;;;;;18.98;49.32;99999.81;5006995;28;20040;-68
2023/11/09 05:40:01;;;;;;;0.90;0.70;;;;;;;18.98;49.36;99999.81;5010374;28;20033;-69
2023/11/09 05:42:26;;;;;;;1.92;0.80;;;;;;;18.99;49.44;99997.97;5012797;28;20068;-69
2023/11/09 05:44:52;;;;;;;2.27;0.83;;;;;;;18.98;49.13;99993.69;5006331;28;20049;-70
2023/11/09 05:47:18;;;;;;;1.48;0.88;;;;;;;18.98;49.34;99999.81;5007945;28;20282;-71
2023/11/09 05:49:43;;;;;;;3.83;1.00;;;;;;;18.98;49.35;100001.63;5008116;28;20379;-71
2023/11/09 05:52:09;;;;;;;2.70;1.10;;;;;;;18.96;49.15;100003.56;5009593;28;20110;-70
2023/11/09 05:54:34;;;;;;;1.92;0.82;;;;;;;18.97;49.31;100007.88;5014837;28;20029;-69
2023/11/09 05:57:00;;;;;;;1.45;0.82;;;;;;;18.98;49.32;100009.53;5010254;28;20049;-68
2023/11/09 05:59:25;;;;;;;2.15;1.00;;;;;;;18.98;49.60;100017.47;5006186;28;20095;-68
2023/11/09 06:01:51;;;;;;;1.73;0.82;;;;;;;18.95;49.26;100012.47;5008472;28;20042;-68
2023/11/09 06:04:16;;;;;;;1.95;1.10;;;;;;;18.96;49.30;100022.91;5003014;28;20091;-72
2023/11/09 06:06:43;;;;;;;2.13;1.10;;;;;;;18.96;49.33;100024.69;5002663;28;20038;-68
2023/11/09 06:09:10;;;;;;;2.22;1.10;;;;;;;18.95;49.41;100026.50;5000143;28;20037;-70
2023/11/09 06:11:35;;;;;;;2.65;1.50;;;;;;;18.95;49.22;100020.41;4998936;28;20034;-71
2023/11/09 06:14:03;;;;;;;2.30;1.00;;;;;;;18.94;49.35;100030.13;5015749;28;20048;-69
2023/11/09 06:16:30;;;;;;;3.38;1.40;;;;;;;18.94;49.26;100037.22;5010409;28;20037;-68
2023/11/09 06:18:56;;;;;;;2.97;1.42;;;;;;;18.94;49.45;100037.22;5010355;28;20064;-68
2023/11/09 06:21:21;;;;;;;6.60;1.30;;;;;;;18.93;49.38;100039.03;5012285;28;20029;-69
2023/11/09 06:23:46;;;;;;;2.53;1.30;;;;;;;18.94;49.31;100035.41;5014123;28;20041;-70
2023/11/09 06:26:12;;;;;;;1.80;1.00;;;;;;;18.95;49.38;100038.88;5004410;28;20037;-69
2023/11/09 06:28:37;;;;;;;2.05;1.00;;;;;;;18.96;49.54;100048.44;5018664;28;20833;-69
2023/11/09 06:31:06;;;;;;;3.15;1.05;;;;;;;18.95;49.62;100045.00;5015241;28;20035;-69
2023/11/09 06:33:33;;;;;;;3.13;1.10;;;;;;;18.93;49.48;100057.53;5001594;28;20184;-70
2023/11/09 06:35:59;;;;;;;2.25;0.90;;;;;;;18.94;49.46;100048.59;5012830;28;20044;-70
2023/11/09 06:38:24;;;;;;;1.95;0.80;;;;;;;18.94;49.60;100047.78;5014541;28;20029;-69
2023/11/09 06:40:49;;;;;;;2.42;0.88;;;;;;;18.96;49.54;100059.00;5010885;28;20544;-69
2023/11/09 06:43:15;;;;;;;1.65;0.80;;;;;;;18.96;49.57;100056.38;5014180;28;20116;-68
2023/11/09 06:45:41;;;;;;;1.95;0.80;;;;;;;18.96;49.60;100057.22;5011926;28;20032;-69
2023/11/09 06:48:06;;;;;;;1.88;0.80;;;;;;;18.94;49.82;100059.16;5011227;28;20054;-69
2023/11/09 06:50:32;;;;;;;1.25;0.70;;;;;;;18.97;49.87;100063.31;5012853;28;20404;-69
2023/11/09 06:52:58;;;;;;;1.10;0.73;;;;;;;18.97;49.92;100063.31;5009875;28;20038;-70
2023/11/09 06:55:24;;;;;;;1.35;0.70;;;;;;;18.98;50.20;100065.00;5010908;28;20049;-69
2023/11/09 06:57:53;;;;;;;1.75;0.82;;;;;;;18.98;49.69;100080.84;5006164;28;20033;-69
2023/11/09 07:00:22;;;;;;;2.08;0.70;;;;;;;18.99;49.57;100066.63;5015349;28;20061;-71
2023/11/09 07:02:47;;;;;;;1.88;0.82;;;;;;;19.00;49.91;100074.41;5011724;28;20036;-70
2023/11/09 07:05:13;;;;;;;2.88;0.90;;;;;;;19.02;50.01;100074.25;5004441;28;20026;-71
2023/11/09 07:07:39;;;;;;;2.20;0.85;;;;;;;19.05;49.87;100086.34;5012889;28;20098;-71
2023/11/09 07:10:08;;;;;;;2.10;0.90;;;;;;;19.05;50.00;100081.88;5002797;28;20414;-69
2023/11/09 07:12:36;;;;;;;1.85;0.70;;;;;;;19.06;49.74;100082.72;5013515;28;20084;-70
2023/11/09 07:15:03;;;;;;;2.35;1.25;;;;;;;19.07;49.82;100076.47;5014476;28;20041;-68
2023/11/09 07:17:28;;;;;;;2.00;0.88;;;;;;;19.08;49.80;100089.50;5019263;28;20042;-68
2023/11/09 07:19:53;;;;;;;1.58;0.90;;;;;;;19.09;49.63;100088.53;5009290;28;20504;-73
2023/11/09 07:22:20;;;;;;;3.38;1.10;;;;;;;19.09;49.79;100088.53;5001662;28;20041;-70
2023/11/09 07:24:52;;;;;;;2.08;1.00;;;;;;;19.11;49.75;100091.84;5005465;28;20116;-69
2023/11/09 07:27:19;;;;;;;2.45;0.98;;;;;;;19.15;49.51;100105.59;5002789;28;20038;-67
2023/11/09 07:29:45;;;;;;;3.00;1.02;;;;;;;19.13;49.81;100105.75;5012599;28;20056;-70
2023/11/09 07:32:10;;;;;;;3.95;1.17;;;;;;;19.13;49.82;100105.75;5008730;28;20498;-69
2023/11/09 07:34:36;;;;;;;4.63;1.20;;;;;;;19.15;50.08;100110.88;5017864;28;20113;-70
2023/11/09 07:37:02;;;;;;;1.95;0.98;;;;;;;19.15;50.06;100097.66;5012117;28;20120;-71
2023/11/09 07:39:27;;;;;;;2.95;1.23;;;;;;;19.15;50.28;100101.16;5003406;28;20083;-68
2023/11/09 07:42:06;;;;;;;3.72;1.17;;;;;;;19.14;50.48;100099.47;5017243;28;20118;-71
2023/11/09 07:44:31;;;;;;;4.07;1.05;;;;;;;19.16;50.28;100102.81;5003557;28;20116;-71
2023/11/09 07:47:00;;;;;;;3.20;1.70;;;;;;;19.18;50.25;100105.28;5005159;28;20444;-69
2023/11/09 07:49:30;;;;;;;3.28;1.42;;;;;;;19.18;50.40;100113.22;5015821;28;20029;-69
2023/11/09 07:51:58;;;;;;;5.38;1.30;;;;;;;19.19;50.34;100118.34;5019256;28;20029;-72
2023/11/09 07:54:24;;;;;;;2.65;1.10;;;;;;;19.16;50.67;100105.44;5000361;28;20551;-72
2023/11/09 07:56:49;;;;;;;3.53;1.10;;;;;;;19.19;50.80;100114.88;5003577;28;20512;-72
2023/11/09 07:59:14;;;;;;;4.65;1.33;;;;;;;19.20;50.25;100113.88;5018461;28;20087;-69
2023/11/09 08:01:40;;;;;;;3.03;1.20;;;;;;;19.19;50.35;100115.72;5008129;28;20033;-71
2023/11/09 08:04:05;;;;;;;3.70;1.10;;;;;;;19.20;50.35;100105.97;5003342;28;20641;-68
2023/11/09 08:06:32;;;;;;;4.00;1.30;;;;;;;19.19;50.52;100109.59;5014751;28;20033;-69
2023/11/09 08:08:59;;;;;;;3.30;1.50;;;;;;;19.21;50.33;100112.91;4964850;28;20056;-70
2023/11/09 08:11:26;;;;;;;3.00;1.30;;;;;;;19.20;50.19;100117.38;5001982;28;20481;-69
2023/11/09 08:13:51;;;;;;;3.13;1.35;;;;;;;19.19;50.35;100114.88;5007207;28;20071;-68
2023/11/09 08:16:17;;;;;;;4.85;1.58;;;;;;;19.20;50.34;100127.94;5009532;28;20037;-70
2023/11/09 08:18:43;;;;;;;3.05;1.27;;;;;;;19.21;50.23;100132.22;5011493;28;20052;-71
2023/11/09 08:21:09;;;;;;;3.35;1.30;;;;;;;19.22;50.24;100130.44;4999952;28;20060;-71
2023/11/09 08:23:35;;;;;;;3.63;1.40;;;;;;;19.20;50.20;100132.38;5010651;28;20037;-69
2023/11/09 08:26:01;;;;;;;5.07;1.40;;;;;;;19.22;50.09;100125.16;5008404;28;20045;-68
2023/11/09 08:28:26;;;;;;;2.83;1.15;;;;;;;19.21;50.50;100123.50;5011030;28;20029;-68
2023/11/09 08:30:51;;;;;;;5.03;1.60;;;;;;;19.20;50.06;100117.38;5011008;28;20113;-74
2023/11/09 08:33:21;;;;;;;3.05;1.30;;;;;;;19.17;50.63;100128.25;4999316;28;20290;-69
2023/11/09 08:35:53;;;;;;;4.22;1.30;;;;;;;19.17;50.67;100130.88;5009596;28;20053;-68
2023/11/09 08:38:22;;;;;;;4.25;1.33;;;;;;;19.18;50.45;100135.19;5012034;28;20026;-69
2023/11/09 08:40:48;;;;;;;3.90;1.50;;;;;;;19.20;50.28;100125.31;4999136;28;20065;-69
2023/11/09 08:43:13;;;;;;;3.83;1.30;;;;;;;19.20;50.33;100133.22;5011824;28;20030;-73
2023/11/09 08:45:39;;;;;;;4.78;1.40;;;;;;;19.21;50.29;100134.88;5007400;28;20358;-69
2023/11/09 08:48:05;;;;;;;3.67;1.33;;;;;;;19.19;50.26;100128.91;5010271;28;20033;-71
2023/11/09 08:50:30;;;;;;;4.22;1.48;;;;;;;19.21;50.00;100136.69;5008648;28;20486;-72
2023/11/09 08:52:55;;;;;;;3.47;1.23;;;;;;;19.21;50.45;100139.34;5009520;28;20047;-73
2023/11/09 08:55:22;;;;;;;5.25;1.50;;;;;;;19.21;50.29;100132.22;5011967;28;20480;-72
2023/11/09 08:57:47;;;;;;;3.28;1.30;;;;;;;19.24;50.17;100125.00;5019754;28;20037;-73
2023/11/09 09:00:13;;;;;;;3.80;1.30;;;;;;;19.24;50.04;100128.47;5019840;28;20025;-72
2023/11/09 09:02:48;;;;;;;3.88;1.33;;;;;;;19.24;50.02;100130.28;5019406;28;20037;-73
2023/11/09 09:05:16;;;;;;;5.32;1.60;;;;;;;19.23;49.80;100126.81;5001448;28;20120;-72
2023/11/09 09:07:42;;;;;;;4.72;1.40;;;;;;;19.23;49.81;100121.53;5018085;28;20029;-72
2023/11/09 09:10:12;;;;;;;2.90;1.42;;;;;;;19.24;49.62;100127.66;5019551;28;20033;-73
2023/11/09 09:12:38;;;;;;;3.33;1.30;;;;;;;19.23;49.75;100124.16;5019484;28;20033;-73
2023/11/09 09:15:12;;;;;;;4.50;1.30;;;;;;;19.23;49.77;100121.53;5018467;28;20544;-72
2023/11/09 09:17:48;;;;;;;4.45;1.45;;;;;;;19.22;49.65;100125.16;5020021;28;20081;-76
2023/11/09 09:20:19;;;;;;;4.38;1.30;;;;;;;19.21;49.68;100115.56;5024975;28;20029;-69
2023/11/09 09:22:49;;;;;;;6.32;1.73;;;;;;;19.23;49.77;100118.06;5019580;28;20045;-71
2023/11/09 09:25:16;;;;;;;4.15;1.30;;;;;;;19.20;49.93;100111.25;5019963;28;20037;-71
2023/11/09 09:27:46;;;;;;;4.43;1.40;;;;;;;19.17;50.00;100107.13;5019484;28;20037;-68
2023/11/09 09:30:21;;;;;;;4.28;1.65;;;;;;;19.19;49.92;100105.16;5004721;28;20500;-72
2023/11/09 09:32:51;;;;;;;7.40;1.63;;;;;;;19.20;49.77;100114.75;5018587;28;20029;-71
2023/11/09 09:35:20;;;;;;;5.10;1.52;;;;;;;19.22;49.88;100114.59;5019219;28;20345;-72
2023/11/09 09:37:47;;;;;;;4.93;1.50;;;;;;;19.23;49.80;100110.94;5018845;28;20041;-71
2023/11/09 09:40:19;;;;;;;4.35;1.10;;;;;;;19.24;49.68;100107.34;5019880;28;20579;-71
2023/11/09 09:42:46;;;;;;;6.35;1.40;;;;;;;19.25;49.69;100094.94;5018821;28;20033;-72
2023/11/09 09:45:16;;;;;;;5.57;1.30;;;;;;;19.24;49.54;100107.34;5019472;28;20770;-71
2023/11/09 09:47:44;;;;;;;5.65;1.38;;;;;;;19.24;49.61;100101.25;5018736;28;20033;-72
2023/11/09 09:50:09;;;;;;;5.18;1.50;;;;;;;19.23;49.75;100102.22;5018917;28;20026;-73
2023/11/09 09:52:38;;;;;;;6.03;1.30;;;;;;;19.21;49.91;100108.47;5019696;28;20366;-72
2023/11/09 09:55:08;;;;;;;5.07;1.48;;;;;;;19.21;49.71;100108.47;5019183;28;20034;-73
2023/11/09 09:57:35;;;;;;;4.20;1.42;;;;;;;19.20;49.76;100111.25;5018549;28;20041;-77
2023/11/09 10:00:07;;;;;;;4.13;1.50;;;;;;;19.21;49.79;100121.66;5018229;28;20600;-73
2023/11/09 10:02:41;;;;;;;6.00;1.58;;;;;;;19.20;49.72;100117.38;5019411;28;20034;-74
2023/11/09 10:05:12;;;;;;;4.93;1.70;;;;;;;19.21;49.58;100126.94;5018256;28;20034;-73
2023/11/09 10:07:57;;;;;;;5.22;1.77;;;;;;;19.18;49.93;100127.28;5018454;28;20095;-69
2023/11/09 10:10:23;;;;;;;5.93;1.45;;;;;;;19.20;49.80;100120.03;4966047;28;20096;-72
2023/11/09 10:12:48;;;;;;;4.93;1.63;;;;;;;19.24;49.73;100128.47;5013178;28;20037;-74
2023/11/09 10:15:15;;;;;;;7.03;1.67;;;;;;;19.25;50.11;100130.16;5015716;28;20073;-71
2023/11/09 10:17:41;;;;;;;6.15;1.70;;;;;;;19.23;50.08;100124.16;5020024;28;20046;-72
2023/11/09 10:20:14;;;;;;;5.30;1.80;;;;;;;19.22;49.88;100125.16;5017388;28;20045;-72
2023/11/09 10:22:40;;;;;;;5.68;1.95;;;;;;;19.22;50.19;100135.72;5017660;28;20069;-73
2023/11/09 10:25:08;;;;;;;5.68;1.60;;;;;;;19.27;49.97;100122.06;5017376;28;20532;-69
2023/11/09 10:27:33;;;;;;;4.00;1.83;;;;;;;19.24;50.13;100128.47;5017889;28;20112;-69
2023/11/09 10:29:58;;;;;;;7.03;1.70;;;;;;;19.24;50.23;100131.13;5017952;28;20128;-76
2023/11/09 10:32:24;;;;;;;5.97;1.50;;;;;;;19.25;50.23;100126.66;5018614;28;20141;-71
2023/11/09 10:34:52;;;;;;;5.73;1.73;;;;;;;19.24;50.37;100125.84;5018057;28;20033;-73
2023/11/09 10:37:18;;;;;;;4.35;1.70;;;;;;;19.22;50.51;100125.16;5016268;28;20270;-72
2023/11/09 10:39:47;;;;;;;4.47;1.73;;;;;;;19.23;50.31;100125.97;5017568;28;20028;-72
2023/11/09 10:42:13;;;;;;;7.07;2.28;;;;;;;19.29;50.17;100122.75;5018379;28;20044;-70
2023/11/09 10:44:43;;;;;;;5.05;1.70;;;;;;;19.30;50.32;100124.41;5000671;28;20409;-72
2023/11/09 10:47:09;;;;;;;6.70;1.75;;;;;;;19.32;50.11;100110.06;5018031;28;20033;-72
2023/11/09 10:49:36;;;;;;;5.30;1.40;;;;;;;19.36;49.73;100110.63;5018104;28;20397;-72
2023/11/09 10:52:05;;;;;;;5.22;1.60;;;;;;;19.36;50.01;100113.25;5018202;28;20044;-72
2023/11/09 10:54:30;;;;;;;6.78;1.73;;;;;;;19.36;50.18;100110.63;5017981;28;20038;-72
2023/11/09 10:56:56;;;;;;;6.00;1.98;;;;;;;19.32;50.33;100104.78;5011824;28;20041;-72
2023/11/09 10:59:24;;;;;;;6.43;1.60;;;;;;;19.36;49.89;100106.16;5008052;28;20026;-71
2023/11/09 11:02:01;;;;;;;12.93;1.80;;;;;;;19.35;50.18;100106.31;5011920;28;20026;-72
2023/11/09 11:04:32;;;;;;;5.47;2.33;;;;;;;19.31;50.11;100107.56;4997065;28;20050;-70
2023/11/09 11:07:02;;;;;;;6.40;1.55;;;;;;;19.27;50.42;100106.22;5010357;28;20030;-71
2023/11/09 11:09:32;;;;;;;4.82;1.63;;;;;;;19.26;50.10;100108.00;5001729;28;20041;-71
2023/11/09 11:12:01;;;;;;;5.32;1.73;;;;;;;19.24;50.37;100107.34;5003157;28;20493;-70
2023/11/09 11:14:29;;;;;;;5.47;1.42;;;;;;;19.24;50.31;100095.94;5001368;28;20313;-71
2023/11/09 11:17:22;;;;;;;5.28;1.85;;;;;;;19.22;50.47;100085.53;5009226;28;20034;-70
2023/11/09 11:20:13;;;;;;;4.13;1.52;;;;;;;19.23;50.47;100083.72;5015075;28;20068;-71
2023/11/09 11:23:06;;;;;;;7.13;1.70;;;;;;;19.29;50.20;100083.13;5010196;28;20041;-73
2023/11/09 11:25:50;;;;;;;5.68;1.83;;;;;;;19.27;50.10;100082.44;5009150;28;20033;-73
2023/11/09 11:28:17;;;;;;;5.00;1.70;;;;;;;19.28;50.40;100084.09;5012767;28;20056;-75
2023/11/09 11:30:44;;;;;;;3.35;1.30;;;;;;;19.25;50.37;100077.31;5011395;28;20451;-77
2023/11/09 11:33:14;;;;;;;3.50;1.20;;;;;;;19.29;50.21;100073.38;5009742;28;20136;-73
2023/11/09 11:35:43;;;;;;;4.60;1.67;;;;;;;19.42;49.89;100061.59;5001995;28;20052;-72
2023/11/09 11:38:17;;;;;;;4.85;1.58;;;;;;;19.52;49.69;100052.63;5015426;28;20091;-71